Petersburg James A Johnson Airport
PAPG : now visible

Airfield :











YOU CAN JOIN US ON...

 
LOGIN :

Register | Disclaimer

   EN    FR    IT 

 









Legend :    VFR   Marginal VFR   IFR   Intensive IFR   Very Intensive IFR
Visi :
Ceiling :
>= 8 km
>= 3000ft
5 to 8 km
1000 to 3000 ft
1500m to 5 km
500 to 1000 ft
800 to 1500m
200 to 500 ft
< 800m
< 200 ft
Symbols :   Thunderstorms  Fog  Heavy snow  Heavy precipitations  Wind > 20 kt






- Airport Elevation : 111 ft
- IATA code : PSG


PAPG - Petersburg James A Johnson

CURRENT METAR :
  • 172256Z 25009KT 10SM FEW060 18/08 A3010 RMK AO2 SLP197 T01830083

EXPIRED METARs :
  • 172156Z 09004KT 10SM SCT080 17/09 A3011 RMK AO2 SLP201 T01670089
  • 172056Z 09004KT 10SM CLR 16/09 A3012 RMK AO2 SLP202 T01610094 58007
  • 171956Z VRB05KT 10SM CLR 17/06 A3013 RMK AO2 SLP205 T01670061

TAF PAPG
Valid from the 17 at 18:00 until the 18 at 18:00 UTC


171724Z 1718/1818 VRB06KT P6SM SCT100
FM180600 VRB04KT P6SM VCSH SCT015 OVC050
FM180900 VRB04KT P6SM -SHRA OVC025 AMD LTD TO CLD VIS AND WIND
PAZA FIR / North America



MET'MAP, your aeronautical weather chart ! - Copyright ORBIFLY December 2007 - Disclaimer

ORBIFLY MET'MAP TEAM :

Programming & Development : Alexandra Zaïnal
Concept & original design : Baudouin d'Aumeries
Assistance for programming : Marc-Olivier Méhu
Technical & hardware support : Manuel Goepfert

Contact : metmap@orbifly.com




SOURCES & CREDITS :

   NOAA       Earth
Advisory